createdAt,value
2023-01-26T00:01:15.712Z,1.40
2023-01-26T00:03:42.886Z,1.47
2023-01-26T00:06:12.484Z,1.51
2023-01-26T00:08:45.320Z,1.36
2023-01-26T00:11:15.166Z,1.34
2023-01-26T00:13:42.448Z,1.29
2023-01-26T00:16:12.525Z,1.33
2023-01-26T00:18:40.599Z,1.38
2023-01-26T00:21:08.879Z,1.27
2023-01-26T00:23:36.012Z,1.30
2023-01-26T00:26:02.871Z,1.14
2023-01-26T00:28:29.789Z,1.21
2023-01-26T00:31:29.150Z,1.41
2023-01-26T00:33:56.727Z,1.38
2023-01-26T00:36:24.321Z,1.44
2023-01-26T00:38:51.197Z,1.29
2023-01-26T00:41:36.716Z,1.33
2023-01-26T00:44:03.747Z,1.29
2023-01-26T00:46:30.693Z,1.27
2023-01-26T00:48:57.536Z,1.21
2023-01-26T00:51:24.339Z,1.23
2023-01-26T00:53:51.366Z,1.29
2023-01-26T00:56:19.114Z,1.39
2023-01-26T00:58:46.734Z,1.39
2023-01-26T01:01:13.695Z,1.27
2023-01-26T01:03:42.776Z,1.39
2023-01-26T01:06:09.724Z,1.44
2023-01-26T01:08:36.588Z,1.50
2023-01-26T01:11:05.445Z,1.47
2023-01-26T01:13:32.482Z,1.47
2023-01-26T01:15:59.352Z,1.44
2023-01-26T01:18:26.265Z,1.54
2023-01-26T01:20:53.192Z,1.47
2023-01-26T01:23:20.154Z,1.50
2023-01-26T01:25:47.047Z,1.56
2023-01-26T01:28:13.833Z,1.43
2023-01-26T01:30:41.429Z,1.43
2023-01-26T01:33:08.313Z,1.53
2023-01-26T01:35:35.867Z,1.49
2023-01-26T01:38:02.813Z,1.60
2023-01-26T01:40:29.872Z,1.68
2023-01-26T01:42:56.938Z,1.73
2023-01-26T01:45:26.938Z,1.67
2023-01-26T01:48:02.023Z,1.66
2023-01-26T01:50:39.315Z,1.61
2023-01-26T01:53:10.954Z,1.57
2023-01-26T01:55:37.917Z,1.54
2023-01-26T01:58:07.085Z,1.43
2023-01-26T02:00:33.997Z,1.47
2023-01-26T02:03:16.728Z,1.55
2023-01-26T02:06:15.936Z,1.57
2023-01-26T02:08:49.626Z,1.52
2023-01-26T02:11:27.122Z,1.50
2023-01-26T02:13:54.730Z,1.57
2023-01-26T02:16:21.644Z,1.53
2023-01-26T02:18:48.690Z,1.55
2023-01-26T02:21:20.447Z,1.59
2023-01-26T02:23:51.107Z,1.50
2023-01-26T02:26:23.725Z,1.42
2023-01-26T02:28:52.333Z,1.55
2023-01-26T02:31:20.033Z,1.48
2023-01-26T02:33:48.073Z,1.53
2023-01-26T02:36:30.061Z,1.57
2023-01-26T02:39:20.362Z,1.62
2023-01-26T02:42:08.206Z,1.50
2023-01-26T02:44:35.308Z,1.44
2023-01-26T02:47:12.401Z,1.50
2023-01-26T02:49:51.127Z,1.70
2023-01-26T02:52:23.291Z,1.65
2023-01-26T02:55:16.855Z,1.58
2023-01-26T02:57:45.148Z,1.58
2023-01-26T03:00:18.248Z,1.64
2023-01-26T03:02:46.749Z,1.65
2023-01-26T03:05:14.099Z,1.66
2023-01-26T03:07:41.424Z,1.71
2023-01-26T03:10:09.606Z,1.67
2023-01-26T03:12:37.140Z,1.52
2023-01-26T03:15:23.951Z,1.54
2023-01-26T03:17:51.842Z,1.59
2023-01-26T03:20:36.974Z,1.60
2023-01-26T03:23:22.256Z,1.57
2023-01-26T03:26:11.527Z,1.58
2023-01-26T03:28:38.414Z,1.71
2023-01-26T03:31:07.533Z,1.55
2023-01-26T03:33:34.428Z,1.61
2023-01-26T03:36:01.633Z,1.63
2023-01-26T03:38:29.633Z,1.65
2023-01-26T03:41:17.997Z,1.69
2023-01-26T03:44:03.414Z,1.73
2023-01-26T03:46:49.066Z,1.63
2023-01-26T03:49:35.125Z,1.60
2023-01-26T03:52:20.331Z,1.65
2023-01-26T03:55:07.003Z,1.67
2023-01-26T03:57:33.795Z,1.63
2023-01-26T04:00:00.794Z,1.63
2023-01-26T04:02:46.729Z,1.66
2023-01-26T04:05:32.330Z,1.64
2023-01-26T04:08:23.627Z,1.63
2023-01-26T04:11:01.423Z,1.71
2023-01-26T04:13:46.794Z,1.67
2023-01-26T04:16:41.644Z,1.61
2023-01-26T04:19:27.549Z,1.62
2023-01-26T04:21:54.609Z,1.70
2023-01-26T04:24:22.714Z,1.62
2023-01-26T04:26:54.173Z,1.69
2023-01-26T04:29:28.304Z,1.64
2023-01-26T04:31:55.409Z,1.60
2023-01-26T04:34:23.243Z,1.42
2023-01-26T04:36:50.503Z,1.42
2023-01-26T04:39:18.920Z,1.57
2023-01-26T04:41:48.825Z,1.64
2023-01-26T04:44:17.036Z,1.60
2023-01-26T04:46:44.047Z,1.68
2023-01-26T04:49:13.253Z,1.61
2023-01-26T04:51:40.635Z,1.68
2023-01-26T04:54:08.227Z,1.61
2023-01-26T04:56:38.536Z,1.65
2023-01-26T04:59:07.988Z,1.57
2023-01-26T05:01:37.421Z,1.54
2023-01-26T05:04:07.975Z,1.52
2023-01-26T05:06:38.416Z,1.53
2023-01-26T05:09:06.219Z,1.58
2023-01-26T05:11:34.962Z,1.64
2023-01-26T05:14:20.491Z,1.70
2023-01-26T05:16:57.793Z,1.62
2023-01-26T05:19:39.524Z,1.66
2023-01-26T05:22:15.680Z,1.64
2023-01-26T05:25:02.667Z,1.54
2023-01-26T05:27:47.201Z,1.65
2023-01-26T05:30:14.951Z,1.60
2023-01-26T05:32:43.057Z,1.54
2023-01-26T05:35:11.047Z,1.50
2023-01-26T05:37:38.589Z,1.44
2023-01-26T05:40:06.040Z,1.46
2023-01-26T05:42:32.992Z,1.41
2023-01-26T05:45:35.669Z,1.45
2023-01-26T05:48:02.746Z,1.49
2023-01-26T05:50:31.329Z,1.49
2023-01-26T05:53:27.276Z,1.63
2023-01-26T05:55:54.495Z,1.62
2023-01-26T05:58:23.867Z,1.71
2023-01-26T06:00:51.497Z,1.68
2023-01-26T06:03:24.521Z,1.62
2023-01-26T06:05:55.350Z,1.73
2023-01-26T06:08:45.145Z,1.79
2023-01-26T06:11:43.525Z,1.71
2023-01-26T06:14:25.683Z,1.62
2023-01-26T06:16:54.580Z,1.74
2023-01-26T06:19:21.637Z,1.81
2023-01-26T06:21:53.544Z,1.86
2023-01-26T06:24:20.764Z,1.91
2023-01-26T06:26:49.478Z,1.78
2023-01-26T06:29:18.009Z,1.89
2023-01-26T06:31:45.085Z,1.85
2023-01-26T06:34:12.591Z,1.88
2023-01-26T06:36:41.829Z,1.82
2023-01-26T06:39:13.159Z,1.86
2023-01-26T06:41:40.388Z,1.94
2023-01-26T06:44:08.782Z,1.93
2023-01-26T06:46:36.206Z,2.03
2023-01-26T06:49:04.526Z,1.98
2023-01-26T06:51:43.265Z,2.11
2023-01-26T06:54:11.495Z,2.01
2023-01-26T06:56:53.553Z,2.06
2023-01-26T06:59:38.298Z,2.02
2023-01-26T07:02:22.635Z,2.19
2023-01-26T07:04:50.461Z,2.13
2023-01-26T07:07:17.617Z,2.13
2023-01-26T07:09:44.867Z,2.19
2023-01-26T07:12:11.707Z,2.17
2023-01-26T07:14:38.625Z,2.18
2023-01-26T07:17:05.521Z,2.21
2023-01-26T07:19:33.887Z,2.28
2023-01-26T07:22:01.526Z,2.26
2023-01-26T07:24:28.965Z,2.34
2023-01-26T07:26:56.562Z,2.30
2023-01-26T07:29:23.363Z,2.28
2023-01-26T07:31:50.586Z,2.18
2023-01-26T07:34:17.693Z,2.26
2023-01-26T07:36:45.626Z,2.27
2023-01-26T07:39:12.563Z,2.20
2023-01-26T07:41:39.451Z,2.19
2023-01-26T07:44:25.615Z,2.23
2023-01-26T07:46:53.827Z,2.33
2023-01-26T07:49:20.861Z,2.29
2023-01-26T07:51:47.929Z,2.24
2023-01-26T07:54:15.039Z,2.31
2023-01-26T07:56:41.862Z,2.31
2023-01-26T07:59:11.391Z,2.44
2023-01-26T08:01:39.524Z,2.47
2023-01-26T08:04:07.457Z,2.53
2023-01-26T08:06:34.298Z,2.48
2023-01-26T08:09:01.433Z,2.40
2023-01-26T08:11:28.261Z,2.47
2023-01-26T08:13:56.118Z,2.48
2023-01-26T08:16:23.029Z,2.37
2023-01-26T08:18:50.228Z,2.27
2023-01-26T08:21:18.644Z,2.26
2023-01-26T08:23:52.595Z,2.47
2023-01-26T08:26:20.232Z,2.55
2023-01-26T08:28:47.701Z,2.52
2023-01-26T08:31:20.673Z,2.73
2023-01-26T08:33:50.988Z,2.90
2023-01-26T08:36:21.730Z,2.82
2023-01-26T08:38:48.968Z,2.88
2023-01-26T08:41:16.210Z,2.72
2023-01-26T08:43:43.475Z,2.80
2023-01-26T08:46:10.921Z,2.90
2023-01-26T08:48:38.659Z,2.75
2023-01-26T08:51:08.084Z,2.69
2023-01-26T08:53:36.362Z,2.71
2023-01-26T08:56:05.422Z,2.63
2023-01-26T08:58:33.832Z,2.57
2023-01-26T09:01:04.970Z,2.64
2023-01-26T09:03:31.831Z,2.63
2023-01-26T09:06:02.206Z,2.62
2023-01-26T09:08:29.246Z,2.61
2023-01-26T09:10:56.384Z,2.51
2023-01-26T09:13:23.633Z,2.58
2023-01-26T09:15:50.516Z,2.80
2023-01-26T09:18:18.098Z,2.93
2023-01-26T09:20:45.304Z,2.93
2023-01-26T09:23:12.771Z,2.92
2023-01-26T09:25:40.115Z,3.21
2023-01-26T09:28:07.258Z,3.16
2023-01-26T09:30:34.123Z,3.17
2023-01-26T09:33:02.762Z,3.41
2023-01-26T09:35:30.817Z,3.52
2023-01-26T09:37:57.710Z,3.48
2023-01-26T09:40:55.283Z,3.39
2023-01-26T09:43:35.791Z,3.33
2023-01-26T09:46:22.201Z,3.34
2023-01-26T09:49:11.752Z,3.30
2023-01-26T09:52:03.589Z,3.34
2023-01-26T09:54:47.101Z,3.39
2023-01-26T09:57:17.539Z,3.34
2023-01-26T09:59:53.445Z,3.28
2023-01-26T10:02:41.843Z,3.28
2023-01-26T10:05:19.829Z,3.25
2023-01-26T10:07:46.951Z,3.46
2023-01-26T10:10:41.880Z,3.36
2023-01-26T10:13:13.027Z,3.43
2023-01-26T10:15:43.256Z,3.47
2023-01-26T10:18:39.454Z,3.39
2023-01-26T10:21:07.674Z,3.49
2023-01-26T10:23:36.163Z,3.55
2023-01-26T10:26:24.764Z,3.74
2023-01-26T10:28:53.005Z,3.82
2023-01-26T10:31:25.011Z,3.90
2023-01-26T10:33:59.629Z,4.00
2023-01-26T10:36:29.865Z,3.74
2023-01-26T10:39:04.783Z,3.92
2023-01-26T10:41:31.831Z,3.89
2023-01-26T10:44:01.249Z,4.04
2023-01-26T10:46:41.258Z,4.12
2023-01-26T10:49:08.298Z,4.22
2023-01-26T10:51:37.764Z,4.08
2023-01-26T10:54:25.711Z,3.99
2023-01-26T10:57:02.550Z,4.18
2023-01-26T10:59:46.278Z,4.23
2023-01-26T11:02:18.775Z,4.17
2023-01-26T11:05:18.452Z,4.23
2023-01-26T11:07:48.187Z,4.26
2023-01-26T11:10:21.059Z,4.29
2023-01-26T11:12:48.933Z,4.31
2023-01-26T11:15:21.931Z,4.38
2023-01-26T11:18:00.172Z,4.36
2023-01-26T11:20:51.413Z,4.46
2023-01-26T11:23:32.964Z,4.40
2023-01-26T11:26:37.034Z,4.36
2023-01-26T11:29:22.754Z,4.18
2023-01-26T11:32:04.694Z,4.31
2023-01-26T11:34:48.172Z,4.34
2023-01-26T11:37:44.567Z,4.32
2023-01-26T11:41:03.885Z,4.43
2023-01-26T11:43:54.584Z,4.45
2023-01-26T11:46:42.741Z,4.44
2023-01-26T11:49:17.141Z,4.40
2023-01-26T11:51:59.998Z,4.49
2023-01-26T11:54:46.024Z,4.55
2023-01-26T11:57:54.150Z,4.49
2023-01-26T12:00:44.177Z,4.41
2023-01-26T12:03:46.047Z,4.44
2023-01-26T12:06:27.362Z,4.52
2023-01-26T12:09:03.279Z,4.49
2023-01-26T12:11:42.654Z,4.44
2023-01-26T12:14:21.673Z,4.37
2023-01-26T12:17:39.464Z,4.14
2023-01-26T12:20:28.821Z,4.09
2023-01-26T12:23:02.509Z,4.08
2023-01-26T12:25:38.387Z,4.11
2023-01-26T12:28:26.912Z,4.19
2023-01-26T12:31:14.347Z,4.13
2023-01-26T12:33:42.163Z,4.10
2023-01-26T12:36:27.331Z,4.10
2023-01-26T12:39:08.210Z,4.20
2023-01-26T12:42:23.276Z,4.10
2023-01-26T12:45:02.080Z,3.99
2023-01-26T12:47:44.237Z,4.00
2023-01-26T12:50:40.263Z,4.04
2023-01-26T12:53:32.376Z,3.94
2023-01-26T12:56:19.136Z,3.79
2023-01-26T12:58:50.305Z,3.65
2023-01-26T13:01:20.778Z,3.73
2023-01-26T13:03:55.795Z,3.69
2023-01-26T13:06:25.812Z,3.71
2023-01-26T13:09:04.866Z,3.89
2023-01-26T13:11:47.693Z,3.93
2023-01-26T13:14:59.355Z,3.98
2023-01-26T13:17:27.448Z,3.94
2023-01-26T13:20:00.326Z,3.94
2023-01-26T13:22:27.118Z,3.99
2023-01-26T13:24:59.128Z,4.00
2023-01-26T13:27:28.332Z,3.93
2023-01-26T13:29:56.250Z,4.05
2023-01-26T13:32:23.337Z,4.07
2023-01-26T13:34:58.396Z,4.05
2023-01-26T13:37:34.700Z,4.03
2023-01-26T13:40:37.931Z,3.99
2023-01-26T13:43:28.254Z,4.11
2023-01-26T13:46:29.583Z,4.12
2023-01-26T13:48:57.464Z,4.12
2023-01-26T13:51:27.753Z,4.05
2023-01-26T13:54:04.737Z,4.14
2023-01-26T13:56:40.248Z,4.17
2023-01-26T13:59:14.885Z,4.13
2023-01-26T14:01:47.623Z,4.11
2023-01-26T14:04:21.282Z,4.06
2023-01-26T14:07:10.033Z,4.15
2023-01-26T14:10:01.508Z,4.11
2023-01-26T14:12:33.861Z,4.01
2023-01-26T14:15:04.144Z,4.15
2023-01-26T14:17:47.253Z,4.03
2023-01-26T14:20:35.914Z,4.11
2023-01-26T14:23:13.719Z,4.17
2023-01-26T14:25:56.968Z,4.24
2023-01-26T14:28:31.211Z,4.21
2023-01-26T14:31:03.277Z,4.20
2023-01-26T14:33:31.076Z,4.05
2023-01-26T14:36:05.441Z,4.14
2023-01-26T14:38:44.654Z,4.22
2023-01-26T14:41:31.977Z,4.26
2023-01-26T14:44:05.990Z,4.14
2023-01-26T14:46:55.847Z,4.14
2023-01-26T14:49:22.603Z,4.31
2023-01-26T14:51:57.727Z,4.16
2023-01-26T14:54:28.424Z,4.15
2023-01-26T14:56:56.255Z,4.20
2023-01-26T14:59:31.226Z,4.21
2023-01-26T15:02:10.217Z,4.37
2023-01-26T15:04:40.576Z,4.27
2023-01-26T15:07:32.276Z,4.21
2023-01-26T15:09:59.247Z,4.35
2023-01-26T15:12:26.819Z,4.41
2023-01-26T15:14:59.432Z,4.47
2023-01-26T15:17:41.202Z,4.29
2023-01-26T15:20:31.286Z,4.66
2023-01-26T15:22:58.227Z,4.52
2023-01-26T15:25:27.691Z,4.59
2023-01-26T15:28:01.279Z,4.59
2023-01-26T15:30:35.467Z,4.63
2023-01-26T15:33:02.668Z,4.72
2023-01-26T15:35:32.540Z,4.78
2023-01-26T15:38:04.980Z,4.76
2023-01-26T15:40:33.064Z,4.73
2023-01-26T15:43:17.935Z,4.82
2023-01-26T15:45:55.629Z,4.82
2023-01-26T15:48:31.641Z,4.90
2023-01-26T15:50:59.175Z,4.89
2023-01-26T15:53:26.449Z,4.84
2023-01-26T15:55:55.440Z,4.89
2023-01-26T15:58:23.701Z,4.89
2023-01-26T16:00:53.912Z,4.97
2023-01-26T16:03:22.455Z,5.02
2023-01-26T16:05:51.247Z,5.02
2023-01-26T16:08:20.944Z,5.10
2023-01-26T16:10:47.992Z,5.08
2023-01-26T16:13:19.086Z,5.00
2023-01-26T16:16:13.762Z,5.07
2023-01-26T16:18:46.537Z,4.95
2023-01-26T16:21:30.268Z,5.09
2023-01-26T16:23:57.685Z,5.09
2023-01-26T16:26:26.916Z,5.07
2023-01-26T16:28:54.497Z,5.14
2023-01-26T16:31:29.999Z,5.11
2023-01-26T16:33:57.409Z,5.24
2023-01-26T16:36:24.630Z,5.18
2023-01-26T16:38:51.529Z,5.29
2023-01-26T16:41:32.833Z,5.31
2023-01-26T16:44:02.682Z,5.25
2023-01-26T16:46:30.811Z,5.33
2023-01-26T16:48:58.031Z,5.45
2023-01-26T16:51:32.244Z,5.42
2023-01-26T16:53:59.541Z,5.35
2023-01-26T16:56:26.500Z,5.46
2023-01-26T16:58:53.939Z,5.48
2023-01-26T17:01:32.317Z,5.37
2023-01-26T17:03:59.425Z,5.59
2023-01-26T17:06:26.994Z,5.56
2023-01-26T17:08:54.677Z,5.57
2023-01-26T17:11:28.204Z,5.70
2023-01-26T17:13:56.449Z,5.79
2023-01-26T17:16:26.052Z,5.62
2023-01-26T17:18:53.208Z,5.66
2023-01-26T17:21:21.188Z,5.69
2023-01-26T17:23:49.973Z,5.80
2023-01-26T17:26:18.161Z,5.84
2023-01-26T17:28:51.183Z,5.79
2023-01-26T17:31:20.134Z,5.80
2023-01-26T17:33:48.541Z,5.81
2023-01-26T17:36:16.863Z,5.76
2023-01-26T17:38:44.277Z,5.76
2023-01-26T17:41:13.819Z,5.67
2023-01-26T17:43:41.047Z,5.66
2023-01-26T17:46:23.524Z,5.88
2023-01-26T17:48:51.010Z,5.78
2023-01-26T17:51:20.552Z,5.74
2023-01-26T17:53:51.896Z,5.81
2023-01-26T17:56:19.777Z,5.91
2023-01-26T17:58:51.772Z,5.88
2023-01-26T18:01:19.517Z,5.93
2023-01-26T18:03:46.737Z,5.90
2023-01-26T18:06:13.718Z,5.90
2023-01-26T18:08:41.943Z,5.91
2023-01-26T18:11:11.723Z,5.98
2023-01-26T18:13:39.383Z,5.98
2023-01-26T18:16:08.241Z,5.87
2023-01-26T18:18:35.807Z,5.84
2023-01-26T18:21:18.675Z,5.93
2023-01-26T18:23:58.458Z,5.94
2023-01-26T18:26:28.370Z,5.97
2023-01-26T18:28:55.936Z,5.72
2023-01-26T18:31:32.657Z,5.79
2023-01-26T18:34:01.842Z,5.98
2023-01-26T18:36:30.826Z,5.93
2023-01-26T18:39:01.197Z,6.09
2023-01-26T18:41:31.701Z,6.03
2023-01-26T18:44:01.071Z,6.01
2023-01-26T18:46:31.442Z,6.11
2023-01-26T18:49:01.244Z,6.05
2023-01-26T18:51:34.005Z,6.05
2023-01-26T18:54:03.996Z,6.08
2023-01-26T18:56:32.128Z,6.20
2023-01-26T18:58:59.921Z,6.14
2023-01-26T19:01:26.885Z,5.99
2023-01-26T19:03:59.713Z,6.13
2023-01-26T19:06:28.659Z,6.11
2023-01-26T19:08:59.473Z,6.09
2023-01-26T19:11:34.547Z,6.06
2023-01-26T19:14:03.507Z,6.15
2023-01-26T19:16:32.492Z,6.19
2023-01-26T19:19:00.938Z,6.20
2023-01-26T19:21:29.101Z,6.25
2023-01-26T19:23:59.459Z,6.20
2023-01-26T19:26:32.350Z,6.21
2023-01-26T19:29:00.126Z,6.18
2023-01-26T19:31:28.430Z,6.16
2023-01-26T19:34:00.553Z,6.20
2023-01-26T19:36:30.328Z,6.21
2023-01-26T19:38:57.580Z,6.25
2023-01-26T19:41:26.207Z,6.31
2023-01-26T19:43:54.139Z,6.27
2023-01-26T19:46:21.627Z,6.33
2023-01-26T19:48:49.077Z,6.19
2023-01-26T19:51:22.166Z,6.35
2023-01-26T19:53:53.804Z,6.37
2023-01-26T19:56:33.125Z,6.17
2023-01-26T19:59:05.245Z,6.18
2023-01-26T20:01:34.581Z,6.21
2023-01-26T20:04:04.828Z,6.33
2023-01-26T20:06:35.378Z,6.41
2023-01-26T20:09:06.664Z,6.45
2023-01-26T20:11:35.341Z,6.42
2023-01-26T20:14:08.661Z,6.34
2023-01-26T20:16:37.275Z,6.45
2023-01-26T20:19:04.412Z,6.42
2023-01-26T20:21:32.572Z,6.49
2023-01-26T20:24:05.091Z,6.53
2023-01-26T20:26:34.914Z,6.50
2023-01-26T20:29:11.019Z,6.61
2023-01-26T20:31:42.251Z,6.65
2023-01-26T20:34:09.768Z,6.63
2023-01-26T20:36:38.568Z,6.57
2023-01-26T20:39:06.119Z,6.55
2023-01-26T20:41:36.129Z,6.72
2023-01-26T20:44:05.414Z,6.77
2023-01-26T20:46:39.314Z,6.67
2023-01-26T20:49:10.480Z,6.77
2023-01-26T20:51:39.564Z,6.70
2023-01-26T20:54:07.466Z,6.71
2023-01-26T20:56:46.804Z,6.66
2023-01-26T20:59:13.924Z,6.65
2023-01-26T21:01:42.447Z,6.68
2023-01-26T21:04:10.022Z,6.72
2023-01-26T21:06:38.166Z,6.76
2023-01-26T21:09:05.824Z,6.79
2023-01-26T21:11:32.769Z,6.79
2023-01-26T21:14:01.863Z,6.81
2023-01-26T21:16:30.480Z,6.86
2023-01-26T21:18:57.787Z,6.94
2023-01-26T21:21:24.998Z,6.89
2023-01-26T21:23:52.276Z,6.86
2023-01-26T21:26:22.616Z,6.76
2023-01-26T21:28:52.090Z,6.85
2023-01-26T21:31:20.534Z,6.90
2023-01-26T21:33:48.818Z,6.75
2023-01-26T21:36:20.446Z,6.80
2023-01-26T21:38:51.109Z,6.80
2023-01-26T21:41:46.852Z,6.67
2023-01-26T21:44:17.510Z,6.83
2023-01-26T21:46:46.302Z,6.87
2023-01-26T21:49:13.743Z,6.85
2023-01-26T21:52:00.002Z,6.86
2023-01-26T21:54:39.640Z,6.72
2023-01-26T21:57:29.394Z,6.92
2023-01-26T21:59:56.757Z,6.80
2023-01-26T22:02:24.344Z,6.85
2023-01-26T22:04:51.666Z,6.88
2023-01-26T22:07:18.782Z,6.97
2023-01-26T22:09:45.704Z,6.87
2023-01-26T22:12:12.627Z,6.81
2023-01-26T22:14:40.271Z,6.74
2023-01-26T22:17:07.379Z,6.75
2023-01-26T22:19:34.688Z,6.62
2023-01-26T22:22:02.478Z,6.72
2023-01-26T22:24:29.864Z,6.73
2023-01-26T22:26:56.794Z,6.76
2023-01-26T22:29:25.670Z,6.71
2023-01-26T22:31:52.495Z,6.76
2023-01-26T22:34:19.811Z,6.65
2023-01-26T22:36:46.904Z,6.77
2023-01-26T22:39:13.774Z,6.76
2023-01-26T22:41:40.646Z,6.48
2023-01-26T22:44:08.261Z,6.78
2023-01-26T22:46:36.887Z,6.73
2023-01-26T22:49:05.032Z,6.70
2023-01-26T22:51:33.167Z,6.75
2023-01-26T22:54:01.088Z,6.75
2023-01-26T22:56:28.108Z,6.82
2023-01-26T22:58:59.674Z,6.77
2023-01-26T23:01:29.518Z,6.76
2023-01-26T23:03:57.702Z,6.88
2023-01-26T23:06:25.822Z,6.75
2023-01-26T23:08:53.133Z,6.81
2023-01-26T23:11:23.793Z,6.73
2023-01-26T23:13:52.493Z,6.73
2023-01-26T23:16:19.843Z,6.89
2023-01-26T23:18:46.966Z,6.74
2023-01-26T23:21:14.510Z,6.80
2023-01-26T23:23:42.161Z,6.83
2023-01-26T23:26:11.287Z,6.76
2023-01-26T23:28:42.768Z,6.79
2023-01-26T23:31:12.315Z,6.80
2023-01-26T23:33:39.706Z,6.68
2023-01-26T23:36:08.420Z,6.88
2023-01-26T23:38:35.972Z,6.79
2023-01-26T23:41:05.294Z,6.74
2023-01-26T23:43:32.431Z,6.63
2023-01-26T23:45:59.751Z,6.85
2023-01-26T23:48:26.828Z,6.80
2023-01-26T23:50:58.938Z,6.75
2023-01-26T23:53:26.200Z,6.61
2023-01-26T23:55:53.116Z,6.67
2023-01-26T23:58:20.420Z,6.80
